Terminal Aerodrome Forecast
Issued by NWS

Current Version | Previous Version | Text Only | Print | Product List | Glossary On
Versions: 1 2 3 4 5 6 7 8 9 10 11 12 13 14
000
FTUS43 KPAH 262300
TAFCGI
TAF
KCGI 262340Z 2700/2724 17006KT P6SM BKN035
     FM270800 17008KT 6SM -SHRA BR SCT012 OVC025
     FM271100 17007KT 4SM -RA BR OVC012
     FM271400 19006KT 3SM -RADZ BR OVC008
     FM272200 31007KT 6SM BR OVC012=

USA.gov is the U.S. government's official web portal to all federal, state and local government web resources and services.